sensor_id;sensor_type;location;lat;lon;timestamp;temperature;humidity
33761;DHT22;20084;47.912;19.044;2023-07-13T00:01:35;22.20;99.90
33761;DHT22;20084;47.912;19.044;2023-07-13T00:04:01;22.20;99.90
33761;DHT22;20084;47.912;19.044;2023-07-13T00:06:26;22.20;99.90
33761;DHT22;20084;47.912;19.044;2023-07-13T00:08:55;22.20;99.90
33761;DHT22;20084;47.912;19.044;2023-07-13T00:11:21;22.30;99.90
33761;DHT22;20084;47.912;19.044;2023-07-13T00:13:46;22.20;99.90
33761;DHT22;20084;47.912;19.044;2023-07-13T00:16:12;22.20;99.90
33761;DHT22;20084;47.912;19.044;2023-07-13T00:18:39;22.30;99.90
33761;DHT22;20084;47.912;19.044;2023-07-13T00:21:04;22.30;99.90
33761;DHT22;20084;47.912;19.044;2023-07-13T00:23:31;22.20;99.90
33761;DHT22;20084;47.912;19.044;2023-07-13T00:25:59;22.20;99.90
33761;DHT22;20084;47.912;19.044;2023-07-13T00:28:25;22.10;99.90
33761;DHT22;20084;47.912;19.044;2023-07-13T00:30:50;22.00;99.90
33761;DHT22;20084;47.912;19.044;2023-07-13T00:33:16;22.00;99.90
33761;DHT22;20084;47.912;19.044;2023-07-13T00:35:41;21.90;99.90
33761;DHT22;20084;47.912;19.044;2023-07-13T00:38:09;21.80;99.90
33761;DHT22;20084;47.912;19.044;2023-07-13T00:40:34;21.70;99.90
33761;DHT22;20084;47.912;19.044;2023-07-13T00:43:00;21.60;99.90
33761;DHT22;20084;47.912;19.044;2023-07-13T00:47:51;21.70;99.90
33761;DHT22;20084;47.912;19.044;2023-07-13T00:50:16;21.70;99.90
33761;DHT22;20084;47.912;19.044;2023-07-13T00:52:44;21.70;99.90
33761;DHT22;20084;47.912;19.044;2023-07-13T00:55:10;21.70;99.90
33761;DHT22;20084;47.912;19.044;2023-07-13T00:57:36;21.60;99.90
33761;DHT22;20084;47.912;19.044;2023-07-13T01:00:03;21.60;99.90
33761;DHT22;20084;47.912;19.044;2023-07-13T01:02:31;21.60;99.90
33761;DHT22;20084;47.912;19.044;2023-07-13T01:04:57;21.60;99.90
33761;DHT22;20084;47.912;19.044;2023-07-13T01:07:23;21.60;99.90
33761;DHT22;20084;47.912;19.044;2023-07-13T01:09:49;21.60;99.90
33761;DHT22;20084;47.912;19.044;2023-07-13T01:12:14;21.60;99.90
33761;DHT22;20084;47.912;19.044;2023-07-13T01:14:40;21.60;99.90
33761;DHT22;20084;47.912;19.044;2023-07-13T01:17:08;21.60;99.90
33761;DHT22;20084;47.912;19.044;2023-07-13T01:22:09;21.60;99.90
33761;DHT22;20084;47.912;19.044;2023-07-13T01:24:37;21.60;99.90
33761;DHT22;20084;47.912;19.044;2023-07-13T01:27:03;21.60;99.90
33761;DHT22;20084;47.912;19.044;2023-07-13T01:29:29;21.50;99.90
33761;DHT22;20084;47.912;19.044;2023-07-13T01:31:55;21.50;99.90
33761;DHT22;20084;47.912;19.044;2023-07-13T01:34:21;21.50;99.90
33761;DHT22;20084;47.912;19.044;2023-07-13T01:36:46;21.50;99.90
33761;DHT22;20084;47.912;19.044;2023-07-13T01:39:12;21.50;99.90
33761;DHT22;20084;47.912;19.044;2023-07-13T01:41:37;21.50;99.90
33761;DHT22;20084;47.912;19.044;2023-07-13T01:44:03;21.40;99.90
33761;DHT22;20084;47.912;19.044;2023-07-13T01:46:28;21.40;99.90
33761;DHT22;20084;47.912;19.044;2023-07-13T01:48:54;21.40;99.90
33761;DHT22;20084;47.912;19.044;2023-07-13T01:51:19;21.40;99.90
33761;DHT22;20084;47.912;19.044;2023-07-13T01:53:45;21.30;99.90
33761;DHT22;20084;47.912;19.044;2023-07-13T01:56:11;21.20;99.90
33761;DHT22;20084;47.912;19.044;2023-07-13T01:58:36;21.20;99.90
33761;DHT22;20084;47.912;19.044;2023-07-13T02:01:02;21.20;99.90
33761;DHT22;20084;47.912;19.044;2023-07-13T02:03:27;21.20;99.90
33761;DHT22;20084;47.912;19.044;2023-07-13T02:05:53;21.20;99.90
33761;DHT22;20084;47.912;19.044;2023-07-13T02:08:18;21.20;99.90
33761;DHT22;20084;47.912;19.044;2023-07-13T02:10:44;21.20;99.90
33761;DHT22;20084;47.912;19.044;2023-07-13T02:13:09;21.20;99.90
33761;DHT22;20084;47.912;19.044;2023-07-13T02:15:38;21.20;99.90
33761;DHT22;20084;47.912;19.044;2023-07-13T02:18:03;21.20;99.90
33761;DHT22;20084;47.912;19.044;2023-07-13T02:20:29;21.20;99.90
33761;DHT22;20084;47.912;19.044;2023-07-13T02:22:54;21.20;99.90
33761;DHT22;20084;47.912;19.044;2023-07-13T02:25:20;21.20;99.90
33761;DHT22;20084;47.912;19.044;2023-07-13T02:27:45;21.20;99.90
33761;DHT22;20084;47.912;19.044;2023-07-13T02:30:11;21.20;99.90
33761;DHT22;20084;47.912;19.044;2023-07-13T02:32:36;21.20;99.90
33761;DHT22;20084;47.912;19.044;2023-07-13T02:35:02;21.10;99.90
33761;DHT22;20084;47.912;19.044;2023-07-13T02:37:28;21.10;99.90
33761;DHT22;20084;47.912;19.044;2023-07-13T02:39:53;21.00;99.90
33761;DHT22;20084;47.912;19.044;2023-07-13T02:42:19;21.00;99.90
33761;DHT22;20084;47.912;19.044;2023-07-13T02:44:45;20.80;99.90
33761;DHT22;20084;47.912;19.044;2023-07-13T02:47:10;20.70;99.90
33761;DHT22;20084;47.912;19.044;2023-07-13T02:49:36;20.80;99.90
33761;DHT22;20084;47.912;19.044;2023-07-13T02:52:01;20.70;99.90
33761;DHT22;20084;47.912;19.044;2023-07-13T02:54:27;20.70;99.90
33761;DHT22;20084;47.912;19.044;2023-07-13T02:56:53;20.70;99.90
33761;DHT22;20084;47.912;19.044;2023-07-13T02:59:18;20.60;99.90
33761;DHT22;20084;47.912;19.044;2023-07-13T03:01:44;20.60;99.90
33761;DHT22;20084;47.912;19.044;2023-07-13T03:04:09;20.60;99.90
33761;DHT22;20084;47.912;19.044;2023-07-13T03:06:35;20.50;99.90
33761;DHT22;20084;47.912;19.044;2023-07-13T03:09:00;20.50;99.90
33761;DHT22;20084;47.912;19.044;2023-07-13T03:11:26;20.50;99.90
33761;DHT22;20084;47.912;19.044;2023-07-13T03:13:52;20.40;99.90
33761;DHT22;20084;47.912;19.044;2023-07-13T03:16:17;20.40;99.90
33761;DHT22;20084;47.912;19.044;2023-07-13T03:18:43;20.40;99.90
33761;DHT22;20084;47.912;19.044;2023-07-13T03:21:09;20.40;99.90
33761;DHT22;20084;47.912;19.044;2023-07-13T03:23:34;20.40;99.90
33761;DHT22;20084;47.912;19.044;2023-07-13T03:26:10;20.40;99.90
33761;DHT22;20084;47.912;19.044;2023-07-13T03:28:35;20.40;99.90
33761;DHT22;20084;47.912;19.044;2023-07-13T03:31:06;20.40;99.90
33761;DHT22;20084;47.912;19.044;2023-07-13T03:33:31;20.40;99.90
33761;DHT22;20084;47.912;19.044;2023-07-13T03:35:57;20.50;99.90
33761;DHT22;20084;47.912;19.044;2023-07-13T03:38:23;20.50;99.90
33761;DHT22;20084;47.912;19.044;2023-07-13T03:40:48;20.50;99.90
33761;DHT22;20084;47.912;19.044;2023-07-13T03:43:14;20.50;99.90
33761;DHT22;20084;47.912;19.044;2023-07-13T03:45:40;20.50;99.90
33761;DHT22;20084;47.912;19.044;2023-07-13T03:48:05;20.60;99.90
33761;DHT22;20084;47.912;19.044;2023-07-13T03:50:31;20.60;99.90
33761;DHT22;20084;47.912;19.044;2023-07-13T03:52:57;20.60;99.90
33761;DHT22;20084;47.912;19.044;2023-07-13T03:55:22;20.60;99.90
33761;DHT22;20084;47.912;19.044;2023-07-13T03:57:52;20.70;99.90
33761;DHT22;20084;47.912;19.044;2023-07-13T04:00:18;20.70;99.90
33761;DHT22;20084;47.912;19.044;2023-07-13T04:02:43;20.70;99.90
33761;DHT22;20084;47.912;19.044;2023-07-13T04:05:09;20.80;99.90
33761;DHT22;20084;47.912;19.044;2023-07-13T04:07:34;20.80;99.90
33761;DHT22;20084;47.912;19.044;2023-07-13T04:10:00;20.80;99.90
33761;DHT22;20084;47.912;19.044;2023-07-13T04:12:25;20.80;99.90
33761;DHT22;20084;47.912;19.044;2023-07-13T04:14:51;20.80;99.90
33761;DHT22;20084;47.912;19.044;2023-07-13T04:17:16;20.90;99.90
33761;DHT22;20084;47.912;19.044;2023-07-13T04:19:42;20.90;99.90
33761;DHT22;20084;47.912;19.044;2023-07-13T04:22:07;20.90;99.90
33761;DHT22;20084;47.912;19.044;2023-07-13T04:24:33;20.90;99.90
33761;DHT22;20084;47.912;19.044;2023-07-13T04:26:58;20.90;99.90
33761;DHT22;20084;47.912;19.044;2023-07-13T04:29:25;20.90;99.90
33761;DHT22;20084;47.912;19.044;2023-07-13T04:31:51;21.00;99.90
33761;DHT22;20084;47.912;19.044;2023-07-13T04:34:16;21.00;99.90
33761;DHT22;20084;47.912;19.044;2023-07-13T04:36:42;21.00;99.90
33761;DHT22;20084;47.912;19.044;2023-07-13T04:39:07;21.00;99.90
33761;DHT22;20084;47.912;19.044;2023-07-13T04:41:34;21.00;99.90
33761;DHT22;20084;47.912;19.044;2023-07-13T04:43:59;21.00;99.90
33761;DHT22;20084;47.912;19.044;2023-07-13T04:46:25;21.00;99.90
33761;DHT22;20084;47.912;19.044;2023-07-13T04:48:50;20.90;99.90
33761;DHT22;20084;47.912;19.044;2023-07-13T04:51:18;20.90;99.90
33761;DHT22;20084;47.912;19.044;2023-07-13T04:53:44;20.90;99.90
33761;DHT22;20084;47.912;19.044;2023-07-13T04:56:09;20.90;99.90
33761;DHT22;20084;47.912;19.044;2023-07-13T04:58:35;20.90;99.90
33761;DHT22;20084;47.912;19.044;2023-07-13T05:01:01;20.80;99.90
33761;DHT22;20084;47.912;19.044;2023-07-13T05:03:26;20.60;99.90
33761;DHT22;20084;47.912;19.044;2023-07-13T05:05:59;20.60;99.90
33761;DHT22;20084;47.912;19.044;2023-07-13T05:08:25;20.60;99.90
33761;DHT22;20084;47.912;19.044;2023-07-13T05:10:51;20.60;99.90
33761;DHT22;20084;47.912;19.044;2023-07-13T05:13:17;20.60;99.90
33761;DHT22;20084;47.912;19.044;2023-07-13T05:15:42;20.70;99.90
33761;DHT22;20084;47.912;19.044;2023-07-13T05:18:08;20.70;99.90
33761;DHT22;20084;47.912;19.044;2023-07-13T05:20:33;20.70;99.90
33761;DHT22;20084;47.912;19.044;2023-07-13T05:22:59;20.70;99.90
33761;DHT22;20084;47.912;19.044;2023-07-13T05:25:24;20.70;99.90
33761;DHT22;20084;47.912;19.044;2023-07-13T05:27:50;20.60;99.90
33761;DHT22;20084;47.912;19.044;2023-07-13T05:30:15;20.50;99.90
33761;DHT22;20084;47.912;19.044;2023-07-13T05:32:41;20.50;99.90
33761;DHT22;20084;47.912;19.044;2023-07-13T05:35:06;20.40;99.90
33761;DHT22;20084;47.912;19.044;2023-07-13T05:37:32;20.40;99.90
33761;DHT22;20084;47.912;19.044;2023-07-13T05:39:57;20.30;99.90
33761;DHT22;20084;47.912;19.044;2023-07-13T05:42:24;20.20;99.90
33761;DHT22;20084;47.912;19.044;2023-07-13T05:44:49;20.10;99.90
33761;DHT22;20084;47.912;19.044;2023-07-13T05:47:15;19.90;99.90
33761;DHT22;20084;47.912;19.044;2023-07-13T05:49:40;19.80;99.90
33761;DHT22;20084;47.912;19.044;2023-07-13T05:52:06;19.70;99.90
33761;DHT22;20084;47.912;19.044;2023-07-13T05:54:32;19.70;99.90
33761;DHT22;20084;47.912;19.044;2023-07-13T05:56:57;19.60;99.90
33761;DHT22;20084;47.912;19.044;2023-07-13T05:59:22;19.70;99.90
33761;DHT22;20084;47.912;19.044;2023-07-13T06:01:48;19.70;99.90
33761;DHT22;20084;47.912;19.044;2023-07-13T06:04:14;19.60;99.90
33761;DHT22;20084;47.912;19.044;2023-07-13T06:06:39;19.70;99.90
33761;DHT22;20084;47.912;19.044;2023-07-13T06:09:05;19.60;99.90
33761;DHT22;20084;47.912;19.044;2023-07-13T06:11:31;19.60;99.90
33761;DHT22;20084;47.912;19.044;2023-07-13T06:13:56;19.60;99.90
33761;DHT22;20084;47.912;19.044;2023-07-13T06:16:22;19.60;99.90
33761;DHT22;20084;47.912;19.044;2023-07-13T06:18:48;19.60;99.90
33761;DHT22;20084;47.912;19.044;2023-07-13T06:21:14;19.60;99.90
33761;DHT22;20084;47.912;19.044;2023-07-13T06:23:40;19.60;99.90
33761;DHT22;20084;47.912;19.044;2023-07-13T06:26:06;19.60;99.90
33761;DHT22;20084;47.912;19.044;2023-07-13T06:28:32;19.60;99.90
33761;DHT22;20084;47.912;19.044;2023-07-13T06:30:58;19.60;99.90
33761;DHT22;20084;47.912;19.044;2023-07-13T06:33:24;19.60;99.90
33761;DHT22;20084;47.912;19.044;2023-07-13T06:35:49;19.70;99.90
33761;DHT22;20084;47.912;19.044;2023-07-13T06:38:15;19.80;99.90
33761;DHT22;20084;47.912;19.044;2023-07-13T06:40:41;19.90;99.90
33761;DHT22;20084;47.912;19.044;2023-07-13T06:43:06;20.00;99.90
33761;DHT22;20084;47.912;19.044;2023-07-13T06:45:36;20.00;99.90
33761;DHT22;20084;47.912;19.044;2023-07-13T06:48:05;20.00;99.90
33761;DHT22;20084;47.912;19.044;2023-07-13T06:50:30;19.90;99.90
33761;DHT22;20084;47.912;19.044;2023-07-13T06:52:56;19.90;99.90
33761;DHT22;20084;47.912;19.044;2023-07-13T06:55:21;20.00;99.90
33761;DHT22;20084;47.912;19.044;2023-07-13T06:57:47;19.90;99.90
33761;DHT22;20084;47.912;19.044;2023-07-13T07:00:12;19.90;99.90
33761;DHT22;20084;47.912;19.044;2023-07-13T07:02:38;19.90;99.90
33761;DHT22;20084;47.912;19.044;2023-07-13T07:05:04;20.00;99.90
33761;DHT22;20084;47.912;19.044;2023-07-13T07:07:29;20.10;99.90
33761;DHT22;20084;47.912;19.044;2023-07-13T07:09:55;20.20;99.90
33761;DHT22;20084;47.912;19.044;2023-07-13T07:12:20;20.30;99.90
33761;DHT22;20084;47.912;19.044;2023-07-13T07:14:46;20.50;99.90
33761;DHT22;20084;47.912;19.044;2023-07-13T07:17:12;20.80;99.90
33761;DHT22;20084;47.912;19.044;2023-07-13T07:19:38;20.80;99.90
33761;DHT22;20084;47.912;19.044;2023-07-13T07:22:03;20.90;99.90
33761;DHT22;20084;47.912;19.044;2023-07-13T07:24:29;21.00;99.90
33761;DHT22;20084;47.912;19.044;2023-07-13T07:26:54;21.20;99.90
33761;DHT22;20084;47.912;19.044;2023-07-13T07:29:20;21.40;99.90
33761;DHT22;20084;47.912;19.044;2023-07-13T07:31:45;21.50;99.90
33761;DHT22;20084;47.912;19.044;2023-07-13T07:34:11;21.60;99.90
33761;DHT22;20084;47.912;19.044;2023-07-13T07:36:37;21.80;99.90
33761;DHT22;20084;47.912;19.044;2023-07-13T07:39:02;22.10;99.90
33761;DHT22;20084;47.912;19.044;2023-07-13T07:41:28;22.30;99.90
33761;DHT22;20084;47.912;19.044;2023-07-13T07:43:54;22.40;99.90
33761;DHT22;20084;47.912;19.044;2023-07-13T07:46:19;22.60;99.90
33761;DHT22;20084;47.912;19.044;2023-07-13T07:48:45;22.70;99.90
33761;DHT22;20084;47.912;19.044;2023-07-13T07:51:10;22.80;99.90
33761;DHT22;20084;47.912;19.044;2023-07-13T07:53:36;23.00;99.90
33761;DHT22;20084;47.912;19.044;2023-07-13T07:56:01;23.00;99.90
33761;DHT22;20084;47.912;19.044;2023-07-13T07:58:27;23.00;99.90
33761;DHT22;20084;47.912;19.044;2023-07-13T08:00:52;23.10;99.90
33761;DHT22;20084;47.912;19.044;2023-07-13T08:03:18;23.20;99.90
33761;DHT22;20084;47.912;19.044;2023-07-13T08:05:43;23.30;99.90
33761;DHT22;20084;47.912;19.044;2023-07-13T08:08:09;23.40;99.90
33761;DHT22;20084;47.912;19.044;2023-07-13T08:10:35;23.50;99.90
33761;DHT22;20084;47.912;19.044;2023-07-13T08:13:01;23.60;99.90
33761;DHT22;20084;47.912;19.044;2023-07-13T08:15:27;23.70;99.90
33761;DHT22;20084;47.912;19.044;2023-07-13T08:17:53;23.70;99.90
33761;DHT22;20084;47.912;19.044;2023-07-13T08:20:19;23.70;99.90
33761;DHT22;20084;47.912;19.044;2023-07-13T08:22:44;23.80;99.90
33761;DHT22;20084;47.912;19.044;2023-07-13T08:25:10;23.90;99.90
33761;DHT22;20084;47.912;19.044;2023-07-13T08:27:35;23.90;99.90
33761;DHT22;20084;47.912;19.044;2023-07-13T08:30:01;24.00;99.90
33761;DHT22;20084;47.912;19.044;2023-07-13T08:32:26;24.00;99.90
33761;DHT22;20084;47.912;19.044;2023-07-13T08:34:52;24.10;99.90
33761;DHT22;20084;47.912;19.044;2023-07-13T08:37:17;24.10;99.90
33761;DHT22;20084;47.912;19.044;2023-07-13T08:39:43;24.20;99.90
33761;DHT22;20084;47.912;19.044;2023-07-13T08:42:19;24.20;99.90
33761;DHT22;20084;47.912;19.044;2023-07-13T08:47:14;24.50;99.90
33761;DHT22;20084;47.912;19.044;2023-07-13T08:49:40;24.60;99.90
33761;DHT22;20084;47.912;19.044;2023-07-13T08:52:16;24.70;99.90
33761;DHT22;20084;47.912;19.044;2023-07-13T08:54:47;24.90;99.90
33761;DHT22;20084;47.912;19.044;2023-07-13T08:57:18;24.90;99.90
33761;DHT22;20084;47.912;19.044;2023-07-13T08:59:45;25.00;99.90
33761;DHT22;20084;47.912;19.044;2023-07-13T09:12:38;25.50;99.90
33761;DHT22;20084;47.912;19.044;2023-07-13T09:15:06;25.60;99.90
33761;DHT22;20084;47.912;19.044;2023-07-13T09:17:41;25.50;99.90
33761;DHT22;20084;47.912;19.044;2023-07-13T09:22:52;25.50;99.90
33761;DHT22;20084;47.912;19.044;2023-07-13T09:25:27;25.50;99.90
33761;DHT22;20084;47.912;19.044;2023-07-13T09:27:55;25.40;99.90
33761;DHT22;20084;47.912;19.044;2023-07-13T09:31:06;25.30;99.90
33761;DHT22;20084;47.912;19.044;2023-07-13T09:33:11;25.40;99.90
33761;DHT22;20084;47.912;19.044;2023-07-13T09:35:36;25.40;99.90
33761;DHT22;20084;47.912;19.044;2023-07-13T09:38:04;25.30;99.90
33761;DHT22;20084;47.912;19.044;2023-07-13T09:43:19;25.00;99.90
33761;DHT22;20084;47.912;19.044;2023-07-13T09:45:46;25.10;99.90
33761;DHT22;20084;47.912;19.044;2023-07-13T09:48:13;25.10;99.90
33761;DHT22;20084;47.912;19.044;2023-07-13T09:50:39;25.10;99.90
33761;DHT22;20084;47.912;19.044;2023-07-13T09:53:11;25.10;99.90
33761;DHT22;20084;47.912;19.044;2023-07-13T09:55:38;25.20;99.90
33761;DHT22;20084;47.912;19.044;2023-07-13T09:58:11;25.10;99.90
33761;DHT22;20084;47.912;19.044;2023-07-13T10:00:37;25.10;99.90
33761;DHT22;20084;47.912;19.044;2023-07-13T10:03:09;25.00;99.90
33761;DHT22;20084;47.912;19.044;2023-07-13T10:05:40;25.00;99.90
33761;DHT22;20084;47.912;19.044;2023-07-13T10:08:06;25.10;99.90
33761;DHT22;20084;47.912;19.044;2023-07-13T10:10:32;25.40;99.90
33761;DHT22;20084;47.912;19.044;2023-07-13T10:12:58;25.30;99.90
33761;DHT22;20084;47.912;19.044;2023-07-13T10:15:24;25.20;99.90
33761;DHT22;20084;47.912;19.044;2023-07-13T10:17:51;25.10;99.90
33761;DHT22;20084;47.912;19.044;2023-07-13T10:20:17;25.20;99.90
33761;DHT22;20084;47.912;19.044;2023-07-13T10:22:47;25.20;99.90
33761;DHT22;20084;47.912;19.044;2023-07-13T10:25:16;25.10;99.90
33761;DHT22;20084;47.912;19.044;2023-07-13T10:27:43;25.20;99.90
33761;DHT22;20084;47.912;19.044;2023-07-13T10:30:14;25.30;99.90
33761;DHT22;20084;47.912;19.044;2023-07-13T10:32:40;25.40;99.90
33761;DHT22;20084;47.912;19.044;2023-07-13T10:35:08;25.40;99.90
33761;DHT22;20084;47.912;19.044;2023-07-13T10:41:01;25.50;99.90
33761;DHT22;20084;47.912;19.044;2023-07-13T10:43:20;25.70;99.90
33761;DHT22;20084;47.912;19.044;2023-07-13T10:45:47;25.70;99.90
33761;DHT22;20084;47.912;19.044;2023-07-13T10:48:16;25.70;99.90
33761;DHT22;20084;47.912;19.044;2023-07-13T10:50:43;25.70;99.90
33761;DHT22;20084;47.912;19.044;2023-07-13T10:53:20;25.70;99.90
33761;DHT22;20084;47.912;19.044;2023-07-13T11:00:57;25.90;99.90
33761;DHT22;20084;47.912;19.044;2023-07-13T11:03:25;25.90;99.90
33761;DHT22;20084;47.912;19.044;2023-07-13T11:06:03;25.90;99.90
33761;DHT22;20084;47.912;19.044;2023-07-13T11:10:56;26.00;99.90
33761;DHT22;20084;47.912;19.044;2023-07-13T11:13:38;26.10;99.90
33761;DHT22;20084;47.912;19.044;2023-07-13T11:18:49;26.00;99.90
33761;DHT22;20084;47.912;19.044;2023-07-13T11:21:19;26.10;99.90
33761;DHT22;20084;47.912;19.044;2023-07-13T11:23:51;26.20;99.90
33761;DHT22;20084;47.912;19.044;2023-07-13T11:27:18;26.10;99.90
33761;DHT22;20084;47.912;19.044;2023-07-13T11:31:40;26.40;99.90
33761;DHT22;20084;47.912;19.044;2023-07-13T11:34:13;26.40;99.90
33761;DHT22;20084;47.912;19.044;2023-07-13T11:36:39;26.60;99.90
33761;DHT22;20084;47.912;19.044;2023-07-13T11:39:18;26.60;99.90
33761;DHT22;20084;47.912;19.044;2023-07-13T11:42:03;26.60;99.90
33761;DHT22;20084;47.912;19.044;2023-07-13T11:44:29;26.40;99.90
33761;DHT22;20084;47.912;19.044;2023-07-13T11:46:56;26.20;99.90
33761;DHT22;20084;47.912;19.044;2023-07-13T11:49:24;26.10;99.90
33761;DHT22;20084;47.912;19.044;2023-07-13T11:51:49;26.10;99.90
33761;DHT22;20084;47.912;19.044;2023-07-13T11:54:32;26.00;99.90
33761;DHT22;20084;47.912;19.044;2023-07-13T11:57:00;25.90;99.90
33761;DHT22;20084;47.912;19.044;2023-07-13T11:59:27;26.00;99.90
33761;DHT22;20084;47.912;19.044;2023-07-13T12:01:54;26.10;99.90
33761;DHT22;20084;47.912;19.044;2023-07-13T12:04:27;26.10;99.90
33761;DHT22;20084;47.912;19.044;2023-07-13T12:06:58;26.20;99.90
33761;DHT22;20084;47.912;19.044;2023-07-13T12:09:28;26.10;99.90
33761;DHT22;20084;47.912;19.044;2023-07-13T12:11:53;26.10;99.90
33761;DHT22;20084;47.912;19.044;2023-07-13T12:14:19;26.20;99.90
33761;DHT22;20084;47.912;19.044;2023-07-13T12:16:46;26.20;99.90
33761;DHT22;20084;47.912;19.044;2023-07-13T12:21:44;26.20;99.90
33761;DHT22;20084;47.912;19.044;2023-07-13T12:24:16;26.30;99.90
33761;DHT22;20084;47.912;19.044;2023-07-13T12:26:42;26.40;99.90
33761;DHT22;20084;47.912;19.044;2023-07-13T12:29:11;26.50;99.90
33761;DHT22;20084;47.912;19.044;2023-07-13T12:31:41;26.70;99.90
33761;DHT22;20084;47.912;19.044;2023-07-13T12:34:09;26.80;99.90
33761;DHT22;20084;47.912;19.044;2023-07-13T12:36:37;26.90;99.90
33761;DHT22;20084;47.912;19.044;2023-07-13T12:39:06;26.90;99.90
33761;DHT22;20084;47.912;19.044;2023-07-13T12:41:35;26.90;99.90
33761;DHT22;20084;47.912;19.044;2023-07-13T12:44:01;26.90;99.90
33761;DHT22;20084;47.912;19.044;2023-07-13T12:46:26;26.80;99.90
33761;DHT22;20084;47.912;19.044;2023-07-13T12:48:54;26.90;99.90
33761;DHT22;20084;47.912;19.044;2023-07-13T12:51:24;27.00;99.90
33761;DHT22;20084;47.912;19.044;2023-07-13T12:53:51;27.20;99.90
33761;DHT22;20084;47.912;19.044;2023-07-13T12:56:23;27.30;99.90
33761;DHT22;20084;47.912;19.044;2023-07-13T12:58:49;27.30;99.90
33761;DHT22;20084;47.912;19.044;2023-07-13T13:01:20;27.30;99.90
33761;DHT22;20084;47.912;19.044;2023-07-13T13:03:48;27.00;99.90
33761;DHT22;20084;47.912;19.044;2023-07-13T13:08:40;27.10;99.90
33761;DHT22;20084;47.912;19.044;2023-07-13T13:11:08;27.20;99.90
33761;DHT22;20084;47.912;19.044;2023-07-13T13:13:34;27.20;99.90
33761;DHT22;20084;47.912;19.044;2023-07-13T13:16:12;27.20;99.90
33761;DHT22;20084;47.912;19.044;2023-07-13T13:18:39;27.10;99.90
33761;DHT22;20084;47.912;19.044;2023-07-13T13:21:05;27.20;99.90
33761;DHT22;20084;47.912;19.044;2023-07-13T13:23:30;27.20;99.90
33761;DHT22;20084;47.912;19.044;2023-07-13T13:25:57;27.30;99.90
33761;DHT22;20084;47.912;19.044;2023-07-13T13:28:22;27.40;99.90
33761;DHT22;20084;47.912;19.044;2023-07-13T13:30:49;27.50;99.90
33761;DHT22;20084;47.912;19.044;2023-07-13T13:33:16;27.40;99.90
33761;DHT22;20084;47.912;19.044;2023-07-13T13:35:42;27.50;99.90
33761;DHT22;20084;47.912;19.044;2023-07-13T13:38:15;27.50;99.90
33761;DHT22;20084;47.912;19.044;2023-07-13T13:40:42;27.40;99.90
33761;DHT22;20084;47.912;19.044;2023-07-13T13:43:15;27.30;99.90
33761;DHT22;20084;47.912;19.044;2023-07-13T13:45:42;27.30;99.90
33761;DHT22;20084;47.912;19.044;2023-07-13T13:48:15;27.30;99.90
33761;DHT22;20084;47.912;19.044;2023-07-13T13:50:41;27.40;99.90
33761;DHT22;20084;47.912;19.044;2023-07-13T13:53:09;27.40;99.90
33761;DHT22;20084;47.912;19.044;2023-07-13T13:55:35;27.40;99.90
33761;DHT22;20084;47.912;19.044;2023-07-13T13:58:00;27.50;99.90
33761;DHT22;20084;47.912;19.044;2023-07-13T14:00:26;27.60;99.90
33761;DHT22;20084;47.912;19.044;2023-07-13T14:02:51;27.60;99.90
33761;DHT22;20084;47.912;19.044;2023-07-13T14:05:21;27.60;99.90
33761;DHT22;20084;47.912;19.044;2023-07-13T14:07:47;27.70;99.90
33761;DHT22;20084;47.912;19.044;2023-07-13T14:10:16;27.60;99.90
33761;DHT22;20084;47.912;19.044;2023-07-13T14:12:43;27.60;99.90
33761;DHT22;20084;47.912;19.044;2023-07-13T14:15:23;27.70;99.90
33761;DHT22;20084;47.912;19.044;2023-07-13T14:17:49;27.70;99.90
33761;DHT22;20084;47.912;19.044;2023-07-13T14:20:18;27.70;99.90
33761;DHT22;20084;47.912;19.044;2023-07-13T14:22:44;27.70;99.90
33761;DHT22;20084;47.912;19.044;2023-07-13T14:25:13;27.80;99.90
33761;DHT22;20084;47.912;19.044;2023-07-13T14:27:40;27.70;99.90
33761;DHT22;20084;47.912;19.044;2023-07-13T14:30:13;27.60;99.90
33761;DHT22;20084;47.912;19.044;2023-07-13T14:32:39;27.60;99.90
33761;DHT22;20084;47.912;19.044;2023-07-13T14:35:05;27.60;99.90
33761;DHT22;20084;47.912;19.044;2023-07-13T14:37:30;27.50;99.90
33761;DHT22;20084;47.912;19.044;2023-07-13T14:39:56;27.60;99.90
33761;DHT22;20084;47.912;19.044;2023-07-13T14:42:21;27.60;99.90
33761;DHT22;20084;47.912;19.044;2023-07-13T14:44:47;27.70;99.90
33761;DHT22;20084;47.912;19.044;2023-07-13T14:47:12;27.80;99.90
33761;DHT22;20084;47.912;19.044;2023-07-13T14:49:39;27.70;99.90
33761;DHT22;20084;47.912;19.044;2023-07-13T14:52:19;27.50;99.90
33761;DHT22;20084;47.912;19.044;2023-07-13T14:54:46;27.50;99.90
33761;DHT22;20084;47.912;19.044;2023-07-13T14:57:18;27.50;99.90
33761;DHT22;20084;47.912;19.044;2023-07-13T14:59:45;27.40;99.90
33761;DHT22;20084;47.912;19.044;2023-07-13T15:02:18;27.40;99.90
33761;DHT22;20084;47.912;19.044;2023-07-13T15:04:44;27.30;99.90
33761;DHT22;20084;47.912;19.044;2023-07-13T15:07:10;27.20;99.90
33761;DHT22;20084;47.912;19.044;2023-07-13T15:09:36;27.30;99.90
33761;DHT22;20084;47.912;19.044;2023-07-13T15:12:01;27.20;99.90
33761;DHT22;20084;47.912;19.044;2023-07-13T15:14:27;27.30;99.90
33761;DHT22;20084;47.912;19.044;2023-07-13T15:16:53;27.20;99.90
33761;DHT22;20084;47.912;19.044;2023-07-13T15:19:19;27.30;99.90
33761;DHT22;20084;47.912;19.044;2023-07-13T15:21:49;27.30;99.90
33761;DHT22;20084;47.912;19.044;2023-07-13T15:24:15;27.40;99.90
33761;DHT22;20084;47.912;19.044;2023-07-13T15:26:41;27.50;99.90
33761;DHT22;20084;47.912;19.044;2023-07-13T15:29:11;27.60;99.90
33761;DHT22;20084;47.912;19.044;2023-07-13T15:31:36;27.60;99.90
33761;DHT22;20084;47.912;19.044;2023-07-13T15:34:08;27.60;99.90
33761;DHT22;20084;47.912;19.044;2023-07-13T15:36:34;27.70;99.90
33761;DHT22;20084;47.912;19.044;2023-07-13T15:39:00;27.70;99.90
33761;DHT22;20084;47.912;19.044;2023-07-13T15:41:26;27.70;99.90
33761;DHT22;20084;47.912;19.044;2023-07-13T15:43:55;27.70;99.90
33761;DHT22;20084;47.912;19.044;2023-07-13T15:46:23;27.70;99.90
33761;DHT22;20084;47.912;19.044;2023-07-13T15:48:49;27.60;99.90
33761;DHT22;20084;47.912;19.044;2023-07-13T15:51:19;27.60;99.90
33761;DHT22;20084;47.912;19.044;2023-07-13T15:53:45;27.60;99.90
33761;DHT22;20084;47.912;19.044;2023-07-13T15:56:23;27.60;99.90
33761;DHT22;20084;47.912;19.044;2023-07-13T15:58:51;27.50;99.90